Eira — OJJP — position and weather

sailwx.info

Track history (hours):
 
Tides and Currents Weather Stations Pressure Air Temp Water Temp Dewpoint Dewpoint Depression Visibility Wind Speed Wind Dir Waves Ship Positions

Eira

Last reported at 2015-Sep-01 03:18 UTC. Time now 2015-Sep-01 14:13 UTC.
Position N 60°07' E 027°33'.

Length 157 m; draft 6.1 m.

Type: Cargo ship. MMSI: 230935000.

Date/timePositionNaut miles runAvg speedWind from/ knotsBaromVisibWave heightAir tempDewpointWater temp
2015-Sep-01 03:18N 60°07' E 027°33'18 9.2
2015-Sep-01 01:21N 59°58' E 027°02'9 9.2
2015-Sep-01 00:21N 59°59' E 026°44'7 9.0
2015-Aug-31 23:34N 59°59' E 026°30'8 8.4
2015-Aug-31 22:33N 60°07' E 026°30'1 1.1
2015-Aug-31 21:31N 60°08' E 026°29'0 0.0
2015-Aug-31 20:28N 60°08' E 026°29'0 0.0
2015-Aug-31 19:31N 60°08' E 026°29'0 0.0
2015-Aug-31 18:31N 60°08' E 026°29'0 0.0
2015-Aug-31 17:31N 60°08' E 026°29'0 0.0
2015-Aug-31 16:31N 60°08' E 026°29'0 0.0
2015-Aug-31 15:28N 60°08' E 026°29'0 0.0
2015-Aug-31 14:31N 60°08' E 026°29'0 0.0
2015-Aug-31 13:31N 60°08' E 026°29'0 0.1
2015-Aug-31 12:31N 60°08' E 026°29'0 0.1
2015-Aug-31 11:31N 60°08' E 026°29'0 0.0
2015-Aug-31 10:28N 60°08' E 026°29'0 0.0
2015-Aug-31 09:31N 60°08' E 026°29'0 0.1
2015-Aug-31 08:31N 60°08' E 026°29'0 0.1
2015-Aug-31 07:31N 60°08' E 026°29'0 0.0
2015-Aug-31 06:31N 60°08' E 026°29'0 0.1
2015-Aug-31 05:31N 60°08' E 026°29'0 0.0
2015-Aug-31 04:31N 60°08' E 026°29'0 0.0
2015-Aug-31 03:31N 60°08' E 026°29'0 0.0
2015-Aug-31 02:31N 60°08' E 026°29'0 0.0
2015-Aug-31 01:31N 60°08' E 026°29'0 0.0
2015-Aug-31 00:31N 60°08' E 026°29'0 0.1
2015-Aug-30 23:31N 60°08' E 026°29'0 0.2
2015-Aug-30 22:33N 60°08' E 026°30'0 0.4
2015-Aug-30 21:32N 60°09' E 026°30'0 0.0
2015-Aug-30 20:32N 60°09' E 026°30'0 0.0
2015-Aug-30 19:32N 60°09' E 026°30'0 0.0
2015-Aug-30 18:32N 60°09' E 026°30'0 0.0
2015-Aug-30 17:32N 60°09' E 026°30'0 0.0
2015-Aug-30 16:32N 60°09' E 026°30'0 0.0
2015-Aug-30 15:29N 60°09' E 026°30'0 0.0
2015-Aug-30 14:29N 60°09' E 026°30'0 0.0
2015-Aug-30 13:32N 60°09' E 026°30'0 0.0
2015-Aug-30 12:32N 60°09' E 026°30'0 0.0
2015-Aug-30 11:32N 60°09' E 026°30'0 0.0
2015-Aug-30 10:32N 60°09' E 026°30'0 0.0
2015-Aug-30 09:32N 60°09' E 026°30'0 0.5
2015-Aug-30 08:33N 60°08' E 026°31'10 9.7
2015-Aug-30 07:34N 60°03' E 026°46'86 9.4
2015-Aug-29 22:19N 59°60' E 029°39'7 8.8
2015-Aug-29 21:33N 59°57' E 029°52'1010.0
2015-Aug-29 20:33N 59°53' E 030°10'1 0.6
2015-Aug-29 19:31N 59°53' E 030°11'0 0.0
2015-Aug-29 18:28N 59°53' E 030°11'0 0.0
2015-Aug-29 17:31N 59°53' E 030°11'0 0.0
2015-Aug-29 16:28N 59°53' E 030°11'0 0.0
2015-Aug-29 15:31N 59°53' E 030°11'0 0.0
2015-Aug-29 14:28N 59°53' E 030°11'0 0.0
2015-Aug-29 13:28N 59°53' E 030°11'0 0.0
2015-Aug-29 12:31N 59°53' E 030°11'0 0.0
2015-Aug-29 11:31N 59°53' E 030°11'0 0.0
2015-Aug-29 10:31N 59°53' E 030°11'0 0.0
2015-Aug-29 09:31N 59°53' E 030°11'0 0.0
2015-Aug-29 08:31N 59°53' E 030°11'0 0.0
2015-Aug-29 07:31N 59°53' E 030°11'0 0.0
2015-Aug-29 06:31N 59°53' E 030°11'0 0.0
2015-Aug-29 05:31N 59°53' E 030°11'0 0.0
2015-Aug-29 04:28N 59°53' E 030°11'0 0.0
2015-Aug-29 03:31N 59°53' E 030°11'0 0.0
2015-Aug-29 02:31N 59°53' E 030°11'0 0.0
2015-Aug-29 01:31N 59°53' E 030°11'0 0.0
2015-Aug-29 00:31N 59°53' E 030°11'0 0.0
2015-Aug-28 23:31N 59°53' E 030°11'0 0.0
2015-Aug-28 22:28N 59°53' E 030°11'0 0.4
2015-Aug-28 21:31N 59°53' E 030°12'0 0.0
2015-Aug-28 20:31N 59°53' E 030°12'0 0.0
2015-Aug-28 19:31N 59°53' E 030°12'0 0.0
2015-Aug-28 18:28N 59°53' E 030°12'0 0.0
2015-Aug-28 17:31N 59°53' E 030°12'0 0.0
2015-Aug-28 16:31N 59°53' E 030°12'0 0.0
2015-Aug-28 15:31N 59°53' E 030°12'0 0.0
2015-Aug-28 14:31N 59°53' E 030°12'4 3.9
2015-Aug-28 13:33N 59°54' E 030°05'1211.0
2015-Aug-28 12:30N 59°59' E 029°44'64 5.8
2015-Aug-28 01:25N 60°07' E 027°36'1011.4
2015-Aug-28 00:31N 60°02' E 027°18'1110.9
2015-Aug-27 23:33N 59°59' E 026°58'1111.3
2015-Aug-27 22:34N 59°59' E 026°36'7 7.0
2015-Aug-27 21:33N 60°05' E 026°27'4 3.8
2015-Aug-27 20:32N 60°08' E 026°29'0 0.0
2015-Aug-27 19:32N 60°08' E 026°29'0 0.0
2015-Aug-27 18:32N 60°08' E 026°29'0 0.0
2015-Aug-27 17:32N 60°08' E 026°29'0 0.0
2015-Aug-27 16:32N 60°08' E 026°29'0 0.0
2015-Aug-27 15:32N 60°08' E 026°29'0 0.0
2015-Aug-27 14:32N 60°08' E 026°29'0 0.1
2015-Aug-27 13:32N 60°08' E 026°29'0 0.1
2015-Aug-27 12:32N 60°08' E 026°30'0 0.0
2015-Aug-27 11:32N 60°08' E 026°30'0 0.0
2015-Aug-27 10:32N 60°08' E 026°30'0 0.0
2015-Aug-27 09:32N 60°08' E 026°30'0 0.0
2015-Aug-27 08:32N 60°08' E 026°30'0 0.0
2015-Aug-27 07:32N 60°08' E 026°30'0 0.0
2015-Aug-27 06:32N 60°08' E 026°30'0 0.0
2015-Aug-27 05:32N 60°08' E 026°30'0 0.0
2015-Aug-27 04:32N 60°08' E 026°30'0 0.1
2015-Aug-27 03:33N 60°08' E 026°29'1 0.7
2015-Aug-27 02:32N 60°09' E 026°30'0 0.0
2015-Aug-27 01:32N 60°09' E 026°30'0 0.0
2015-Aug-27 00:32N 60°09' E 026°30'0 0.0
2015-Aug-26 23:32N 60°09' E 026°30'0 0.0
2015-Aug-26 22:32N 60°09' E 026°30'0 0.0
2015-Aug-26 21:32N 60°09' E 026°30'0 0.0
2015-Aug-26 20:32N 60°09' E 026°30'0 0.0
2015-Aug-26 19:32N 60°09' E 026°30'0 0.0
2015-Aug-26 18:32N 60°09' E 026°30'0 0.0
2015-Aug-26 17:32N 60°09' E 026°30'0 0.3
2015-Aug-26 16:33N 60°09' E 026°30'1 0.5
2015-Aug-26 15:32N 60°08' E 026°30'0 0.0
2015-Aug-26 14:32N 60°08' E 026°30'0 0.0
2015-Aug-26 13:32N 60°08' E 026°30'0 0.0
2015-Aug-26 12:32N 60°08' E 026°30'0 0.0
2015-Aug-26 11:32N 60°08' E 026°30'0 0.0
2015-Aug-26 10:32N 60°08' E 026°30'0 0.0
2015-Aug-26 09:29N 60°08' E 026°30'0 0.1
2015-Aug-26 08:32N 60°08' E 026°30'0 0.2
2015-Aug-26 07:32N 60°08' E 026°29'0 0.0
2015-Aug-26 06:33N 60°08' E 026°29'3 2.9
2015-Aug-26 05:33N 60°07' E 026°34'1110.7
2015-Aug-26 04:34N 60°01' E 026°52'9 9.4
2015-Aug-26 03:33N 60°02' E 027°11'1110.5
2015-Aug-26 02:34N 60°07' E 027°29'1010.4
2015-Aug-26 01:34N 60°12' E 027°48'5510.2
2015-Aug-25 20:09N 60°00' E 029°37'6 9.4
2015-Aug-25 19:33N 59°58' E 029°47'9 9.1
2015-Aug-25 18:33N 59°55' E 030°04'4 4.0
2015-Aug-25 17:33N 59°53' E 030°11'0 0.0
2015-Aug-25 16:31N 59°53' E 030°11'0 0.0
2015-Aug-25 15:31N 59°53' E 030°11'0 0.0
2015-Aug-25 14:31N 59°53' E 030°11'0 0.0
2015-Aug-25 13:31N 59°53' E 030°11'0 0.0
2015-Aug-25 12:31N 59°53' E 030°11'0 0.0
2015-Aug-25 11:31N 59°53' E 030°11'0 0.0
2015-Aug-25 10:31N 59°53' E 030°11'0 0.0
2015-Aug-25 09:31N 59°53' E 030°11'0 0.0
2015-Aug-25 08:31N 59°53' E 030°11'0 0.0
2015-Aug-25 07:31N 59°53' E 030°11'0 0.0
2015-Aug-25 06:31N 59°53' E 030°11'0 0.0
2015-Aug-25 05:31N 59°53' E 030°11'0 0.0
2015-Aug-25 04:31N 59°53' E 030°11'0 0.0
2015-Aug-25 03:33N 59°53' E 030°11'5 5.5
2015-Aug-25 02:33N 59°55' E 030°01'10 9.7
2015-Aug-25 01:33N 59°59' E 029°44'1010.3
2015-Aug-25 00:33N 60°02' E 029°24'5112.7
2015-Aug-24 20:31N 60°09' E 027°42'1212.5
2015-Aug-24 19:32N 60°03' E 027°21'1212.1
2015-Aug-24 18:33N 59°58' E 026°59'1211.9
2015-Aug-24 17:33N 59°59' E 026°35'1212.1
2015-Aug-24 16:33N 59°56' E 026°12'1212.0
2015-Aug-24 15:33N 59°53' E 025°49'1111.4
2015-Aug-24 14:33N 59°55' E 025°26'1211.9
2015-Aug-24 13:33N 59°59' E 025°04'12 0.6
2015-Aug-23 17:20N 60°11' E 024°58'  
Track history (hours):
 
Tides and Currents Weather Stations Pressure Air Temp Water Temp Dewpoint Dewpoint Depression Visibility Wind Speed Wind Dir Waves Ship Positions

Eira

Last reported at 2015-Sep-01 03:18 UTC. Time now 2015-Sep-01 14:13 UTC.
Position N 60°07' E 027°33'.

Length 157 m; draft 6.1 m.

Type: Cargo ship. MMSI: 230935000.

Date/timePositionNaut miles runAvg speedWind from/ knotsBaromVisibWave heightAir tempDewpointWater temp
2015-Sep-01 03:18N 60°07' E 027°33'18 9.2
2015-Sep-01 01:21N 59°58' E 027°02'9 9.2
2015-Sep-01 00:21N 59°59' E 026°44'7 9.0
2015-Aug-31 23:34N 59°59' E 026°30'8 8.4
2015-Aug-31 22:33N 60°07' E 026°30'1 1.1
2015-Aug-31 21:31N 60°08' E 026°29'0 0.0
2015-Aug-31 20:28N 60°08' E 026°29'0 0.0
2015-Aug-31 19:31N 60°08' E 026°29'0 0.0
2015-Aug-31 18:31N 60°08' E 026°29'0 0.0
2015-Aug-31 17:31N 60°08' E 026°29'0 0.0
2015-Aug-31 16:31N 60°08' E 026°29'0 0.0
2015-Aug-31 15:28N 60°08' E 026°29'0 0.0
2015-Aug-31 14:31N 60°08' E 026°29'0 0.0
2015-Aug-31 13:31N 60°08' E 026°29'0 0.1
2015-Aug-31 12:31N 60°08' E 026°29'0 0.1
2015-Aug-31 11:31N 60°08' E 026°29'0 0.0
2015-Aug-31 10:28N 60°08' E 026°29'0 0.0
2015-Aug-31 09:31N 60°08' E 026°29'0 0.1
2015-Aug-31 08:31N 60°08' E 026°29'0 0.1
2015-Aug-31 07:31N 60°08' E 026°29'0 0.0
2015-Aug-31 06:31N 60°08' E 026°29'0 0.1
2015-Aug-31 05:31N 60°08' E 026°29'0 0.0
2015-Aug-31 04:31N 60°08' E 026°29'0 0.0
2015-Aug-31 03:31N 60°08' E 026°29'0 0.0
2015-Aug-31 02:31N 60°08' E 026°29'0 0.0
2015-Aug-31 01:31N 60°08' E 026°29'0 0.0
2015-Aug-31 00:31N 60°08' E 026°29'0 0.1
2015-Aug-30 23:31N 60°08' E 026°29'0 0.2
2015-Aug-30 22:33N 60°08' E 026°30'0 0.4
2015-Aug-30 21:32N 60°09' E 026°30'0 0.0
2015-Aug-30 20:32N 60°09' E 026°30'0 0.0
2015-Aug-30 19:32N 60°09' E 026°30'0 0.0
2015-Aug-30 18:32N 60°09' E 026°30'0 0.0
2015-Aug-30 17:32N 60°09' E 026°30'0 0.0
2015-Aug-30 16:32N 60°09' E 026°30'0 0.0
2015-Aug-30 15:29N 60°09' E 026°30'0 0.0
2015-Aug-30 14:29N 60°09' E 026°30'0 0.0
2015-Aug-30 13:32N 60°09' E 026°30'0 0.0
2015-Aug-30 12:32N 60°09' E 026°30'0 0.0
2015-Aug-30 11:32N 60°09' E 026°30'0 0.0
2015-Aug-30 10:32N 60°09' E 026°30'0 0.0
2015-Aug-30 09:32N 60°09' E 026°30'0 0.5
2015-Aug-30 08:33N 60°08' E 026°31'10 9.7
2015-Aug-30 07:34N 60°03' E 026°46'86 9.4
2015-Aug-29 22:19N 59°60' E 029°39'7 8.8
2015-Aug-29 21:33N 59°57' E 029°52'1010.0
2015-Aug-29 20:33N 59°53' E 030°10'1 0.6
2015-Aug-29 19:31N 59°53' E 030°11'0 0.0
2015-Aug-29 18:28N 59°53' E 030°11'0 0.0
2015-Aug-29 17:31N 59°53' E 030°11'0 0.0
2015-Aug-29 16:28N 59°53' E 030°11'0 0.0
2015-Aug-29 15:31N 59°53' E 030°11'0 0.0
2015-Aug-29 14:28N 59°53' E 030°11'0 0.0
2015-Aug-29 13:28N 59°53' E 030°11'0 0.0
2015-Aug-29 12:31N 59°53' E 030°11'0 0.0
2015-Aug-29 11:31N 59°53' E 030°11'0 0.0
2015-Aug-29 10:31N 59°53' E 030°11'0 0.0
2015-Aug-29 09:31N 59°53' E 030°11'0 0.0
2015-Aug-29 08:31N 59°53' E 030°11'0 0.0
2015-Aug-29 07:31N 59°53' E 030°11'0 0.0
2015-Aug-29 06:31N 59°53' E 030°11'0 0.0
2015-Aug-29 05:31N 59°53' E 030°11'0 0.0
2015-Aug-29 04:28N 59°53' E 030°11'0 0.0
2015-Aug-29 03:31N 59°53' E 030°11'0 0.0
2015-Aug-29 02:31N 59°53' E 030°11'0 0.0
2015-Aug-29 01:31N 59°53' E 030°11'0 0.0
2015-Aug-29 00:31N 59°53' E 030°11'0 0.0
2015-Aug-28 23:31N 59°53' E 030°11'0 0.0
2015-Aug-28 22:28N 59°53' E 030°11'0 0.4
2015-Aug-28 21:31N 59°53' E 030°12'0 0.0
2015-Aug-28 20:31N 59°53' E 030°12'0 0.0
2015-Aug-28 19:31N 59°53' E 030°12'0 0.0
2015-Aug-28 18:28N 59°53' E 030°12'0 0.0
2015-Aug-28 17:31N 59°53' E 030°12'0 0.0
2015-Aug-28 16:31N 59°53' E 030°12'0 0.0
2015-Aug-28 15:31N 59°53' E 030°12'0 0.0
2015-Aug-28 14:31N 59°53' E 030°12'4 3.9
2015-Aug-28 13:33N 59°54' E 030°05'1211.0
2015-Aug-28 12:30N 59°59' E 029°44'64 5.8
2015-Aug-28 01:25N 60°07' E 027°36'1011.4
2015-Aug-28 00:31N 60°02' E 027°18'1110.9
2015-Aug-27 23:33N 59°59' E 026°58'1111.3
2015-Aug-27 22:34N 59°59' E 026°36'7 7.0
2015-Aug-27 21:33N 60°05' E 026°27'4 3.8
2015-Aug-27 20:32N 60°08' E 026°29'0 0.0
2015-Aug-27 19:32N 60°08' E 026°29'0 0.0
2015-Aug-27 18:32N 60°08' E 026°29'0 0.0
2015-Aug-27 17:32N 60°08' E 026°29'0 0.0
2015-Aug-27 16:32N 60°08' E 026°29'0 0.0
2015-Aug-27 15:32N 60°08' E 026°29'0 0.0
2015-Aug-27 14:32N 60°08' E 026°29'0 0.1
2015-Aug-27 13:32N 60°08' E 026°29'0 0.1
2015-Aug-27 12:32N 60°08' E 026°30'0 0.0
2015-Aug-27 11:32N 60°08' E 026°30'0 0.0
2015-Aug-27 10:32N 60°08' E 026°30'0 0.0
2015-Aug-27 09:32N 60°08' E 026°30'0 0.0
2015-Aug-27 08:32N 60°08' E 026°30'0 0.0
2015-Aug-27 07:32N 60°08' E 026°30'0 0.0
2015-Aug-27 06:32N 60°08' E 026°30'0 0.0
2015-Aug-27 05:32N 60°08' E 026°30'0 0.0
2015-Aug-27 04:32N 60°08' E 026°30'0 0.1
2015-Aug-27 03:33N 60°08' E 026°29'1 0.7
2015-Aug-27 02:32N 60°09' E 026°30'0 0.0
2015-Aug-27 01:32N 60°09' E 026°30'0 0.0
2015-Aug-27 00:32N 60°09' E 026°30'0 0.0
2015-Aug-26 23:32N 60°09' E 026°30'0 0.0
2015-Aug-26 22:32N 60°09' E 026°30'0 0.0
2015-Aug-26 21:32N 60°09' E 026°30'0 0.0
2015-Aug-26 20:32N 60°09' E 026°30'0 0.0
2015-Aug-26 19:32N 60°09' E 026°30'0 0.0
2015-Aug-26 18:32N 60°09' E 026°30'0 0.0
2015-Aug-26 17:32N 60°09' E 026°30'0 0.3
2015-Aug-26 16:33N 60°09' E 026°30'1 0.5
2015-Aug-26 15:32N 60°08' E 026°30'0 0.0
2015-Aug-26 14:32N 60°08' E 026°30'0 0.0
2015-Aug-26 13:32N 60°08' E 026°30'0 0.0
2015-Aug-26 12:32N 60°08' E 026°30'0 0.0
2015-Aug-26 11:32N 60°08' E 026°30'0 0.0
2015-Aug-26 10:32N 60°08' E 026°30'0 0.0
2015-Aug-26 09:29N 60°08' E 026°30'0 0.1
2015-Aug-26 08:32N 60°08' E 026°30'0 0.2
2015-Aug-26 07:32N 60°08' E 026°29'0 0.0
2015-Aug-26 06:33N 60°08' E 026°29'3 2.9
2015-Aug-26 05:33N 60°07' E 026°34'1110.7
2015-Aug-26 04:34N 60°01' E 026°52'9 9.4
2015-Aug-26 03:33N 60°02' E 027°11'1110.5
2015-Aug-26 02:34N 60°07' E 027°29'1010.4
2015-Aug-26 01:34N 60°12' E 027°48'5510.2
2015-Aug-25 20:09N 60°00' E 029°37'6 9.4
2015-Aug-25 19:33N 59°58' E 029°47'9 9.1
2015-Aug-25 18:33N 59°55' E 030°04'4 4.0
2015-Aug-25 17:33N 59°53' E 030°11'0 0.0
2015-Aug-25 16:31N 59°53' E 030°11'0 0.0
2015-Aug-25 15:31N 59°53' E 030°11'0 0.0
2015-Aug-25 14:31N 59°53' E 030°11'0 0.0
2015-Aug-25 13:31N 59°53' E 030°11'0 0.0
2015-Aug-25 12:31N 59°53' E 030°11'0 0.0
2015-Aug-25 11:31N 59°53' E 030°11'0 0.0
2015-Aug-25 10:31N 59°53' E 030°11'0 0.0
2015-Aug-25 09:31N 59°53' E 030°11'0 0.0
2015-Aug-25 08:31N 59°53' E 030°11'0 0.0
2015-Aug-25 07:31N 59°53' E 030°11'0 0.0
2015-Aug-25 06:31N 59°53' E 030°11'0 0.0
2015-Aug-25 05:31N 59°53' E 030°11'0 0.0
2015-Aug-25 04:31N 59°53' E 030°11'0 0.0
2015-Aug-25 03:33N 59°53' E 030°11'5 5.5
2015-Aug-25 02:33N 59°55' E 030°01'10 9.7
2015-Aug-25 01:33N 59°59' E 029°44'1010.3
2015-Aug-25 00:33N 60°02' E 029°24'5112.7
2015-Aug-24 20:31N 60°09' E 027°42'1212.5
2015-Aug-24 19:32N 60°03' E 027°21'1212.1
2015-Aug-24 18:33N 59°58' E 026°59'1211.9
2015-Aug-24 17:33N 59°59' E 026°35'1212.1
2015-Aug-24 16:33N 59°56' E 026°12'1212.0
2015-Aug-24 15:33N 59°53' E 025°49'1111.4
2015-Aug-24 14:33N 59°55' E 025°26'1211.9
2015-Aug-24 13:33N 59°59' E 025°04'12 0.6
2015-Aug-23 17:20N 60°11' E 024°58'  

Dump ship's entire track history